Time;durP1;ratioP1;P1;durP2;ratioP2;P2;SDS_P1;SDS_P2;PMS_P1;PMS_P2;Temp;Humidity;BMP_temperature;BMP_pressure;BME280_temperature;BME280_humidity;BME280_pressure;Samples;Min_cycle;Max_cycle;Signal;HPM_P1;HPM_P2
2022/01/17 00:02:22;;;;;;;45.30;24.27;;;4.40;99.90;;;;;;5080458;28;20886;-60
2022/01/17 00:04:49;;;;;;;47.20;24.10;;;4.40;99.90;;;;;;5080687;28;20461;-60
2022/01/17 00:07:17;;;;;;;48.10;25.07;;;4.50;99.90;;;;;;5080516;28;20468;-56
2022/01/17 00:09:45;;;;;;;48.23;23.50;;;4.50;99.90;;;;;;5079819;28;20496;-58
2022/01/17 00:12:16;;;;;;;40.80;22.77;;;4.40;99.90;;;;;;5079875;28;20458;-59
2022/01/17 00:14:44;;;;;;;51.17;23.83;;;4.40;99.90;;;;;;5080206;28;20522;-60
2022/01/17 00:17:27;;;;;;;46.00;23.93;;;4.50;99.90;;;;;;5059954;28;20461;-59
2022/01/17 00:19:56;;;;;;;61.37;25.93;;;4.50;99.90;;;;;;5077064;28;20736;-60
2022/01/17 00:22:24;;;;;;;49.60;26.20;;;4.40;99.90;;;;;;5078520;28;20464;-58
2022/01/17 00:24:54;;;;;;;44.70;25.00;;;4.40;99.90;;;;;;5079881;28;20516;-60
2022/01/17 00:27:21;;;;;;;52.77;25.37;;;4.40;99.90;;;;;;5079590;28;20566;-60
2022/01/17 00:29:48;;;;;;;50.40;27.23;;;4.40;99.90;;;;;;5079494;28;20582;-60
2022/01/17 00:32:15;;;;;;;49.30;25.70;;;4.40;99.90;;;;;;5078828;28;20436;-58
2022/01/17 00:34:42;;;;;;;49.80;24.67;;;4.40;99.90;;;;;;5079572;28;20950;-58
2022/01/17 00:37:09;;;;;;;48.67;25.07;;;4.40;99.90;;;;;;5078900;28;20527;-60
2022/01/17 00:39:36;;;;;;;45.77;23.77;;;4.40;99.90;;;;;;5078630;28;20740;-60
2022/01/17 00:42:08;;;;;;;49.60;25.00;;;4.40;99.90;;;;;;5078816;28;20540;-60
2022/01/17 00:44:35;;;;;;;45.07;23.53;;;4.40;99.90;;;;;;5087157;28;20577;-59
2022/01/17 00:47:02;;;;;;;47.20;25.57;;;4.40;99.90;;;;;;5099686;28;20521;-59
2022/01/17 00:49:29;;;;;;;55.97;28.30;;;4.40;99.90;;;;;;5093292;28;20924;-60
2022/01/17 00:51:56;;;;;;;63.77;26.97;;;4.40;99.90;;;;;;5096734;28;20464;-60
2022/01/17 00:54:23;;;;;;;56.70;28.17;;;4.50;99.90;;;;;;5095728;28;20913;-58
2022/01/17 00:56:50;;;;;;;54.83;27.47;;;4.40;99.90;;;;;;5097777;28;20547;-59
2022/01/17 00:59:19;;;;;;;53.17;28.57;;;4.40;99.90;;;;;;5094622;28;20457;-60
2022/01/17 01:01:48;;;;;;;51.50;26.53;;;4.40;99.90;;;;;;5078532;28;20461;-58
2022/01/17 01:04:15;;;;;;;51.20;26.40;;;4.40;99.90;;;;;;5079123;28;20462;-59
2022/01/17 01:06:43;;;;;;;53.67;27.93;;;4.40;99.90;;;;;;5078400;28;20442;-60
2022/01/17 01:09:10;;;;;;;54.60;29.93;;;4.40;99.90;;;;;;5079998;28;20791;-58
2022/01/17 01:11:37;;;;;;;59.20;28.40;;;4.40;99.90;;;;;;5081306;28;20457;-59
2022/01/17 01:14:06;;;;;;;61.00;30.10;;;4.40;99.90;;;;;;5081330;28;20461;-59
2022/01/17 01:16:36;;;;;;;59.37;28.77;;;4.40;99.90;;;;;;5088551;28;20469;-60
2022/01/17 01:27:37;;;;;;;66.80;29.83;;;4.50;99.90;;;;;;5071043;28;20742;-60
2022/01/17 01:27:52;;;;;;;69.00;32.90;;;4.40;99.90;;;;;;5079316;28;20477;-60
2022/01/17 01:30:21;;;;;;;77.17;34.20;;;4.40;99.90;;;;;;5039218;28;20491;-60
2022/01/17 01:32:55;;;;;;;78.27;33.80;;;4.50;99.90;;;;;;5056416;28;20473;-59
2022/01/17 01:35:25;;;;;;;68.40;32.20;;;4.40;99.90;;;;;;5071454;28;20507;-60
2022/01/17 01:37:52;;;;;;;73.20;34.30;;;4.40;99.90;;;;;;5058857;28;20466;-60
2022/01/17 01:40:21;;;;;;;71.53;34.50;;;4.50;99.90;;;;;;5076246;28;20436;-60
2022/01/17 01:42:51;;;;;;;69.37;34.90;;;4.50;99.90;;;;;;5065570;28;20462;-60
2022/01/17 01:45:19;;;;;;;76.87;34.20;;;4.50;99.90;;;;;;5057927;28;20502;-60
2022/01/17 01:47:47;;;;;;;78.50;34.70;;;4.50;99.90;;;;;;5058627;28;20858;-59
2022/01/17 01:50:19;;;;;;;65.90;31.90;;;4.50;99.90;;;;;;5058654;28;20490;-59
2022/01/17 01:52:46;;;;;;;63.63;32.90;;;4.50;99.90;;;;;;5058120;28;20549;-60
2022/01/17 01:55:16;;;;;;;83.53;36.13;;;4.50;99.90;;;;;;5057549;28;20458;-60
2022/01/17 01:57:44;;;;;;;81.07;34.63;;;4.50;99.90;;;;;;5058558;28;20834;-60
2022/01/17 02:00:15;;;;;;;87.53;35.23;;;4.50;99.90;;;;;;5058408;28;20454;-60
2022/01/17 02:02:42;;;;;;;75.93;33.57;;;4.50;99.90;;;;;;5073478;28;20542;-60
2022/01/17 02:05:10;;;;;;;74.47;33.90;;;4.50;99.90;;;;;;5078189;28;20465;-61
2022/01/17 02:07:39;;;;;;;69.53;34.07;;;4.50;99.90;;;;;;5058442;28;20492;-61
2022/01/17 02:10:06;;;;;;;75.03;34.87;;;4.50;99.90;;;;;;5057271;28;20494;-60
2022/01/17 02:12:33;;;;;;;81.30;36.30;;;4.50;99.90;;;;;;5058232;28;20524;-60
2022/01/17 02:15:01;;;;;;;90.97;36.83;;;4.60;99.90;;;;;;5057919;28;20466;-60
2022/01/17 02:17:30;;;;;;;76.27;35.90;;;4.60;99.90;;;;;;5058396;28;20455;-61
2022/01/17 02:20:05;;;;;;;103.43;40.27;;;4.60;99.90;;;;;;5057524;28;20451;-60
2022/01/17 02:22:32;;;;;;;85.50;34.40;;;4.50;99.90;;;;;;5050522;28;20891;-61
2022/01/17 02:25:00;;;;;;;77.80;34.70;;;4.60;99.90;;;;;;5058439;28;20462;-59
2022/01/17 02:27:27;;;;;;;86.10;38.40;;;4.60;99.90;;;;;;5057357;28;20482;-60
2022/01/17 02:29:55;;;;;;;81.07;39.20;;;4.60;99.90;;;;;;5057345;28;20930;-60
2022/01/17 02:32:22;;;;;;;82.50;36.00;;;4.50;99.90;;;;;;5055455;28;20853;-60
2022/01/17 02:34:49;;;;;;;85.23;38.37;;;4.50;99.90;;;;;;5058063;28;20436;-60
2022/01/17 02:37:18;;;;;;;91.23;40.10;;;4.50;99.90;;;;;;5057214;28;20462;-60
2022/01/17 02:39:45;;;;;;;79.73;37.60;;;4.60;99.90;;;;;;5057072;28;20463;-60
2022/01/17 02:45:38;;;;;;;84.33;37.60;;;4.50;99.90;;;;;;5076934;28;20379;-60
2022/01/17 02:48:07;;;;;;;87.10;39.33;;;4.60;99.90;;;;;;5075473;28;20436;-61
2022/01/17 02:50:34;;;;;;;93.07;38.00;;;4.60;99.90;;;;;;5059434;28;20536;-60
2022/01/17 02:53:08;;;;;;;93.37;38.37;;;4.60;99.90;;;;;;5063894;28;20458;-61
2022/01/17 02:55:35;;;;;;;84.50;36.60;;;4.60;99.90;;;;;;5057122;28;20497;-60
2022/01/17 02:58:02;;;;;;;90.13;40.33;;;4.60;99.90;;;;;;5056950;28;20524;-60
2022/01/17 03:00:29;;;;;;;81.57;38.00;;;4.60;99.90;;;;;;5058016;28;20433;-61
2022/01/17 03:02:56;;;;;;;96.30;39.20;;;4.60;99.90;;;;;;5068051;28;20458;-60
2022/01/17 03:05:24;;;;;;;98.33;38.53;;;4.60;99.90;;;;;;5068306;28;20462;-61
2022/01/17 03:07:52;;;;;;;88.60;40.10;;;4.60;99.90;;;;;;5077327;28;20898;-61
2022/01/17 03:10:32;;;;;;;97.23;40.10;;;4.60;99.90;;;;;;5069144;28;20768;-60
2022/01/17 03:13:03;;;;;;;90.57;38.60;;;4.60;99.90;;;;;;5070802;28;20489;-60
2022/01/17 03:15:30;;;;;;;87.07;36.87;;;4.60;99.90;;;;;;5064465;28;20619;-60
2022/01/17 03:17:57;;;;;;;85.63;36.53;;;4.60;99.90;;;;;;5056286;28;20862;-61
2022/01/17 03:20:24;;;;;;;81.43;36.80;;;4.60;99.90;;;;;;5056204;28;20858;-61
2022/01/17 03:22:52;;;;;;;77.60;36.30;;;4.60;99.90;;;;;;5073010;28;20519;-61
2022/01/17 03:25:20;;;;;;;80.70;38.30;;;4.70;99.90;;;;;;5058033;28;20501;-60
2022/01/17 03:27:47;;;;;;;88.70;39.37;;;4.70;99.90;;;;;;5056533;28;20995;-60
2022/01/17 03:30:15;;;;;;;83.40;37.57;;;4.70;99.90;;;;;;5057287;28;20913;-61
2022/01/17 03:32:42;;;;;;;78.87;37.20;;;4.70;99.90;;;;;;5056829;28;20894;-60
2022/01/17 03:35:09;;;;;;;85.83;37.70;;;4.70;99.90;;;;;;5067254;28;20461;-61
2022/01/17 03:37:36;;;;;;;73.67;36.37;;;4.70;99.90;;;;;;5057447;28;20441;-60
2022/01/17 03:40:04;;;;;;;86.70;39.20;;;4.70;99.90;;;;;;5070733;28;20486;-60
2022/01/17 03:42:33;;;;;;;85.13;37.40;;;4.70;99.90;;;;;;5062195;28;20884;-61
2022/01/17 03:45:03;;;;;;;76.90;36.07;;;4.70;99.90;;;;;;5056954;28;20474;-60
2022/01/17 03:47:30;;;;;;;72.23;34.77;;;4.80;99.90;;;;;;5070550;28;20472;-60
2022/01/17 03:49:57;;;;;;;80.90;35.60;;;4.80;99.90;;;;;;5059014;28;20969;-57
2022/01/17 03:52:24;;;;;;;76.77;33.83;;;4.70;99.90;;;;;;5066434;28;20458;-60
2022/01/17 03:54:51;;;;;;;70.37;35.93;;;4.80;99.90;;;;;;5056000;28;20436;-60
2022/01/17 03:57:18;;;;;;;73.40;34.13;;;4.80;99.90;;;;;;5067444;28;20891;-58
2022/01/17 03:59:46;;;;;;;67.30;33.57;;;4.80;99.90;;;;;;5075952;28;20444;-58
2022/01/17 04:02:14;;;;;;;71.17;37.07;;;4.80;99.90;;;;;;5070187;28;20895;-53
2022/01/17 04:04:41;;;;;;;70.20;34.43;;;4.80;99.90;;;;;;5056615;28;20443;-60
2022/01/17 04:07:08;;;;;;;79.37;37.47;;;4.80;99.90;;;;;;5056171;28;20469;-59
2022/01/17 04:09:35;;;;;;;72.70;35.73;;;4.80;99.90;;;;;;5062969;28;20447;-60
2022/01/17 04:12:03;;;;;;;60.63;32.00;;;4.80;99.90;;;;;;5076180;28;20489;-59
2022/01/17 04:14:34;;;;;;;58.10;32.60;;;4.70;99.90;;;;;;5056779;28;20470;-57
2022/01/17 04:17:05;;;;;;;75.40;34.20;;;4.70;99.90;;;;;;5062271;28;20463;-55
2022/01/17 04:19:32;;;;;;;73.70;32.73;;;4.70;99.90;;;;;;5071400;28;20466;-59
2022/01/17 04:21:59;;;;;;;73.30;37.83;;;4.70;99.90;;;;;;5056546;28;20458;-59
2022/01/17 04:24:26;;;;;;;60.60;32.70;;;4.70;99.90;;;;;;5064072;28;20805;-59
2022/01/17 04:26:53;;;;;;;63.83;33.97;;;4.70;99.90;;;;;;5063615;28;20436;-58
2022/01/17 04:29:20;;;;;;;74.33;36.73;;;4.80;99.90;;;;;;5099932;28;20456;-58
2022/01/17 04:31:47;;;;;;;64.80;33.90;;;4.80;99.90;;;;;;5099474;28;20462;-60
2022/01/17 04:34:16;;;;;;;54.90;32.43;;;4.70;99.90;;;;;;5090321;28;20444;-56
2022/01/17 04:36:42;;;;;;;59.63;32.80;;;4.70;99.90;;;;;;5082126;28;20769;-60
2022/01/17 04:39:16;;;;;;;65.77;32.97;;;4.70;99.90;;;;;;5099991;28;20456;-58
2022/01/17 04:41:43;;;;;;;70.70;32.50;;;4.80;99.90;;;;;;5082618;28;20465;-58
2022/01/17 04:46:55;;;;;;;66.13;33.13;;;4.80;99.90;;;;;;5081327;28;20747;-60
2022/01/17 04:49:23;;;;;;;69.00;33.07;;;4.70;99.90;;;;;;5080656;28;20765;-57
2022/01/17 04:51:54;;;;;;;53.33;27.30;;;4.70;99.90;;;;;;5099491;28;20492;-60
2022/01/17 04:54:40;;;;;;;52.80;30.53;;;4.70;99.90;;;;;;5096603;28;20454;-58
2022/01/17 04:57:08;;;;;;;56.50;30.53;;;4.80;99.90;;;;;;5079027;28;20465;-58
2022/01/17 04:59:36;;;;;;;55.23;30.73;;;4.80;99.90;;;;;;5058480;28;20822;-60
2022/01/17 05:02:04;;;;;;;59.03;31.40;;;4.70;99.90;;;;;;5086358;28;20717;-60
2022/01/17 05:04:32;;;;;;;57.63;29.87;;;4.70;99.90;;;;;;5091713;28;20439;-58
2022/01/17 05:07:00;;;;;;;59.33;30.80;;;4.70;99.90;;;;;;5078724;28;20464;-57
2022/01/17 05:09:27;;;;;;;54.90;29.97;;;4.80;99.90;;;;;;5078622;28;20914;-58
2022/01/17 05:11:54;;;;;;;57.43;33.37;;;4.70;99.90;;;;;;5079130;28;20492;-59
2022/01/17 05:14:21;;;;;;;60.53;32.60;;;4.80;99.90;;;;;;5078947;28;20468;-60
2022/01/17 05:16:52;;;;;;;60.90;31.67;;;4.80;99.90;;;;;;5078797;28;20894;-60
2022/01/17 05:22:05;;;;;;;62.60;32.00;;;4.70;99.90;;;;;;5087428;28;20533;-60
2022/01/17 05:24:35;;;;;;;57.20;30.57;;;4.80;99.90;;;;;;5077292;28;20518;-59
2022/01/17 05:27:03;;;;;;;58.07;30.93;;;4.70;99.90;;;;;;5076086;28;20469;-59
2022/01/17 05:29:30;;;;;;;57.13;31.20;;;4.70;99.90;;;;;;5056847;28;20536;-55
2022/01/17 05:31:57;;;;;;;60.00;29.53;;;4.80;99.90;;;;;;5062909;28;20465;-59
2022/01/17 05:34:24;;;;;;;56.13;32.43;;;4.70;99.90;;;;;;5070130;28;20519;-59
2022/01/17 05:36:53;;;;;;;55.80;32.03;;;4.70;99.90;;;;;;5063997;28;20531;-60
2022/01/17 05:39:22;;;;;;;60.07;32.10;;;4.70;99.90;;;;;;5073278;28;20462;-59
2022/01/17 05:41:49;;;;;;;59.63;30.53;;;4.70;99.90;;;;;;5058210;28;20828;-60
2022/01/17 05:44:16;;;;;;;53.60;29.30;;;4.70;99.90;;;;;;5058418;28;21006;-55
2022/01/17 05:46:43;;;;;;;49.37;30.33;;;4.70;99.90;;;;;;5058093;28;20477;-58
2022/01/17 05:49:10;;;;;;;51.87;28.00;;;4.70;99.90;;;;;;5057983;28;20466;-58
2022/01/17 05:51:38;;;;;;;59.90;30.13;;;4.70;99.90;;;;;;5057873;28;20494;-59
2022/01/17 05:54:05;;;;;;;48.67;28.80;;;4.70;99.90;;;;;;5058354;28;20498;-59
2022/01/17 05:56:34;;;;;;;50.10;28.10;;;4.70;99.90;;;;;;5058221;28;20554;-57
2022/01/17 05:59:01;;;;;;;52.80;29.20;;;4.70;99.90;;;;;;5057801;28;20461;-60
2022/01/17 06:01:28;;;;;;;52.47;29.60;;;4.70;99.90;;;;;;5057609;28;20879;-57
2022/01/17 06:03:55;;;;;;;54.20;29.27;;;4.70;99.90;;;;;;5058049;28;20436;-54
2022/01/17 06:06:22;;;;;;;57.93;29.67;;;4.70;99.90;;;;;;5058303;28;20879;-55
2022/01/17 06:08:49;;;;;;;57.47;30.17;;;4.70;99.90;;;;;;5056536;28;20921;-56
2022/01/17 06:11:16;;;;;;;58.13;31.80;;;4.70;99.90;;;;;;5056730;28;20464;-59
2022/01/17 06:13:45;;;;;;;58.47;32.93;;;4.80;99.90;;;;;;5056933;28;20458;-55
2022/01/17 06:16:12;;;;;;;57.90;31.17;;;4.80;99.90;;;;;;5058879;28;20462;-57
2022/01/17 06:18:39;;;;;;;48.73;29.47;;;4.80;99.90;;;;;;5065139;28;20470;-59
2022/01/17 06:21:06;;;;;;;67.03;32.27;;;4.70;99.90;;;;;;5056739;28;20535;-59
2022/01/17 06:23:33;;;;;;;50.17;32.20;;;4.70;99.90;;;;;;5058436;28;20447;-56
2022/01/17 06:26:00;;;;;;;58.67;33.63;;;4.70;99.90;;;;;;5057346;28;20477;-55
2022/01/17 06:28:28;;;;;;;60.67;31.90;;;4.80;99.90;;;;;;5057114;28;20552;-62
2022/01/17 06:30:56;;;;;;;55.90;32.57;;;4.80;99.90;;;;;;5057120;28;20469;-62
2022/01/17 06:33:24;;;;;;;57.30;33.10;;;4.80;99.90;;;;;;5057765;28;20728;-62
2022/01/17 06:35:51;;;;;;;52.63;30.40;;;4.70;99.90;;;;;;5056522;28;20454;-62
2022/01/17 06:38:23;;;;;;;57.90;32.47;;;4.70;99.90;;;;;;5065883;28;20465;-62
2022/01/17 06:40:50;;;;;;;57.30;33.17;;;4.70;99.90;;;;;;5059868;28;20462;-62
2022/01/17 06:43:17;;;;;;;64.50;33.00;;;4.80;99.90;;;;;;5057270;28;20524;-62
2022/01/17 06:45:45;;;;;;;60.60;32.77;;;4.80;99.90;;;;;;5070067;28;20818;-62
2022/01/17 06:48:14;;;;;;;54.53;31.53;;;4.90;99.90;;;;;;5057585;28;20744;-62
2022/01/17 06:50:41;;;;;;;70.03;34.97;;;5.10;99.90;;;;;;5052944;28;20729;-61
2022/01/17 06:53:08;;;;;;;59.00;35.03;;;5.00;99.90;;;;;;5054746;28;20887;-62
2022/01/17 06:55:38;;;;;;;65.13;34.33;;;4.90;99.90;;;;;;5055845;28;20437;-62
2022/01/17 06:58:05;;;;;;;63.47;34.03;;;4.90;99.90;;;;;;5055230;28;20486;-61
2022/01/17 07:00:32;;;;;;;57.97;34.27;;;4.80;99.90;;;;;;5056852;28;20531;-62
2022/01/17 07:02:59;;;;;;;66.10;36.63;;;4.80;99.90;;;;;;5056166;28;21117;-62
2022/01/17 07:05:28;;;;;;;64.90;36.43;;;4.80;99.90;;;;;;5055101;28;20930;-62
2022/01/17 07:07:56;;;;;;;55.17;33.20;;;4.80;99.90;;;;;;5055719;28;20473;-61
2022/01/17 07:10:25;;;;;;;54.47;32.37;;;4.70;99.90;;;;;;5055882;28;20978;-62
2022/01/17 07:12:54;;;;;;;56.70;32.53;;;4.70;99.90;;;;;;5056086;28;20529;-61
2022/01/17 07:15:21;;;;;;;57.57;30.90;;;4.70;99.90;;;;;;5056354;28;20520;-62
2022/01/17 07:17:49;;;;;;;56.50;34.00;;;4.70;99.90;;;;;;5056552;28;20437;-61
2022/01/17 07:20:18;;;;;;;59.03;34.37;;;4.70;99.90;;;;;;5056425;28;20532;-61
2022/01/17 07:22:47;;;;;;;60.27;33.87;;;4.70;99.90;;;;;;5056245;28;20437;-62
2022/01/17 07:25:14;;;;;;;60.50;32.63;;;4.70;99.90;;;;;;5056650;28;20466;-59
2022/01/17 07:27:42;;;;;;;54.90;32.07;;;4.70;99.90;;;;;;5059080;28;20572;-62
2022/01/17 07:30:10;;;;;;;59.73;30.20;;;4.70;99.90;;;;;;5055840;28;20445;-62
2022/01/17 07:32:38;;;;;;;57.00;30.50;;;4.70;99.90;;;;;;5054957;28;20460;-61
2022/01/17 07:35:07;;;;;;;51.43;29.23;;;4.80;99.90;;;;;;5060179;28;20466;-62
2022/01/17 07:37:34;;;;;;;55.90;31.07;;;4.80;99.90;;;;;;5072305;28;20497;-62
2022/01/17 07:40:04;;;;;;;48.47;29.47;;;4.70;99.90;;;;;;5060493;28;20465;-60
2022/01/17 07:42:31;;;;;;;49.23;30.00;;;4.70;99.90;;;;;;5072546;28;20429;-62
2022/01/17 07:45:08;;;;;;;53.67;31.80;;;4.70;99.90;;;;;;5056950;28;20461;-62
2022/01/17 07:47:39;;;;;;;47.27;29.50;;;4.70;99.90;;;;;;5056316;28;20441;-62
2022/01/17 07:50:07;;;;;;;50.33;28.87;;;4.80;99.90;;;;;;5056425;28;20466;-62
2022/01/17 07:52:34;;;;;;;49.73;30.10;;;4.80;99.90;;;;;;5075869;28;20519;-62
2022/01/17 07:55:03;;;;;;;50.57;29.67;;;4.70;99.90;;;;;;5060992;28;20972;-61
2022/01/17 07:57:31;;;;;;;54.57;29.63;;;4.70;99.90;;;;;;5056071;28;20462;-61
2022/01/17 08:00:01;;;;;;;49.57;29.50;;;4.70;99.90;;;;;;5056474;28;20468;-62
2022/01/17 08:02:28;;;;;;;50.90;30.40;;;4.80;99.90;;;;;;5072990;28;20491;-61
2022/01/17 08:04:55;;;;;;;53.63;28.43;;;4.80;99.90;;;;;;5079870;28;20796;-61
2022/01/17 08:07:23;;;;;;;46.10;29.77;;;4.80;99.90;;;;;;5080028;28;20526;-62
2022/01/17 08:09:50;;;;;;;50.13;29.93;;;4.80;99.90;;;;;;5061697;28;20440;-62
2022/01/17 08:12:22;;;;;;;44.50;27.70;;;4.80;99.90;;;;;;5060124;28;20485;-62
2022/01/17 08:14:49;;;;;;;58.57;31.70;;;4.80;99.90;;;;;;5060237;28;20532;-61
2022/01/17 08:17:16;;;;;;;60.10;29.97;;;4.90;99.90;;;;;;5078020;28;20465;-62
2022/01/17 08:19:43;;;;;;;50.53;30.97;;;4.90;99.90;;;;;;5065733;28;20437;-61
2022/01/17 08:22:10;;;;;;;48.03;30.77;;;4.90;99.90;;;;;;5060269;28;20560;-61
2022/01/17 08:24:40;;;;;;;58.40;34.10;;;4.90;99.90;;;;;;5060341;28;20957;-62
2022/01/17 08:27:07;;;;;;;58.00;34.20;;;4.90;99.90;;;;;;5061638;28;20466;-62
2022/01/17 08:29:36;;;;;;;59.03;34.80;;;4.90;99.90;;;;;;5079332;28;20436;-62
2022/01/17 08:32:07;;;;;;;57.40;34.43;;;5.00;99.90;;;;;;5079871;28;20478;-62
2022/01/17 08:34:34;;;;;;;51.67;32.63;;;4.90;99.90;;;;;;5080248;28;20462;-62
2022/01/17 08:37:02;;;;;;;59.90;34.70;;;4.90;99.90;;;;;;5079354;28;20424;-62
2022/01/17 08:39:29;;;;;;;56.27;35.00;;;5.00;99.90;;;;;;5079285;28;20432;-62
2022/01/17 08:42:10;;;;;;;61.17;36.07;;;5.00;99.90;;;;;;5079811;28;20515;-63
2022/01/17 08:44:39;;;;;;;60.00;37.67;;;5.00;99.90;;;;;;5080233;28;20439;-62
2022/01/17 08:47:07;;;;;;;65.93;40.20;;;5.00;99.90;;;;;;5079485;28;20900;-62
2022/01/17 08:49:34;;;;;;;61.53;39.93;;;5.00;99.90;;;;;;5078918;28;20465;-62
2022/01/17 08:52:01;;;;;;;69.00;42.07;;;5.10;99.90;;;;;;5079865;28;20468;-63
2022/01/17 08:54:28;;;;;;;66.17;40.77;;;5.10;99.90;;;;;;5079088;28;20468;-62
2022/01/17 08:56:55;;;;;;;59.43;38.30;;;5.10;99.90;;;;;;5079752;28;20469;-63
2022/01/17 08:59:22;;;;;;;64.93;39.77;;;5.10;99.90;;;;;;5079193;28;20527;-63
2022/01/17 09:01:51;;;;;;;54.70;39.47;;;5.10;99.90;;;;;;5079164;28;20468;-62
2022/01/17 09:04:22;;;;;;;59.67;38.67;;;5.10;99.90;;;;;;5079864;28;20736;-63
2022/01/17 09:06:49;;;;;;;56.63;38.07;;;5.10;99.90;;;;;;5079748;28;20519;-63
2022/01/17 09:09:17;;;;;;;55.00;36.47;;;5.10;99.90;;;;;;5079436;28;20440;-63
2022/01/17 09:11:47;;;;;;;61.23;38.87;;;5.10;99.90;;;;;;5077929;28;20550;-63
2022/01/17 09:14:14;;;;;;;54.13;35.77;;;5.20;99.90;;;;;;5078432;28;20544;-63
2022/01/17 09:16:44;;;;;;;56.30;37.70;;;5.20;99.90;;;;;;5079146;28;20764;-63
2022/01/17 09:19:14;;;;;;;52.97;35.70;;;5.20;99.90;;;;;;5078814;28;20461;-63
2022/01/17 09:21:42;;;;;;;57.90;39.67;;;5.20;99.90;;;;;;5078733;28;20764;-63
2022/01/17 09:24:09;;;;;;;59.80;36.13;;;5.30;99.90;;;;;;5079256;28;20791;-62
2022/01/17 09:26:39;;;;;;;54.37;37.50;;;5.30;99.90;;;;;;5079786;28;20462;-61
2022/01/17 09:29:06;;;;;;;49.90;33.80;;;5.20;99.90;;;;;;5078556;28;20466;-60
2022/01/17 09:31:34;;;;;;;55.47;36.93;;;5.30;99.90;;;;;;5078034;28;20752;-60
2022/01/17 09:34:01;;;;;;;45.73;33.80;;;5.30;99.90;;;;;;5078556;28;20544;-61
2022/01/17 09:36:34;;;;;;;46.17;33.90;;;5.20;99.90;;;;;;5078714;28;20446;-61
2022/01/17 09:39:02;;;;;;;54.47;34.47;;;5.20;99.90;;;;;;5079002;28;20424;-61
2022/01/17 09:41:29;;;;;;;53.33;35.87;;;5.20;99.90;;;;;;5078140;28;20501;-61
2022/01/17 09:44:06;;;;;;;52.00;34.87;;;5.20;99.90;;;;;;5078094;28;20766;-61
2022/01/17 09:46:38;;;;;;;55.17;37.33;;;5.20;99.90;;;;;;5078551;28;20435;-61
2022/01/17 09:49:21;;;;;;;48.33;33.70;;;5.20;99.90;;;;;;5078429;28;20465;-61
2022/01/17 09:54:39;;;;;;;58.50;35.70;;;5.20;99.90;;;;;;5078146;28;20734;-62
2022/01/17 09:57:11;;;;;;;60.97;38.37;;;5.20;99.90;;;;;;5078109;28;20469;-62
2022/01/17 09:59:40;;;;;;;51.90;37.53;;;5.30;99.90;;;;;;5078303;28;20560;-62
2022/01/17 10:02:09;;;;;;;51.07;36.40;;;5.20;99.90;;;;;;5075866;28;20431;-62
2022/01/17 10:04:37;;;;;;;55.13;36.40;;;5.30;99.90;;;;;;5072269;28;20897;-62
2022/01/17 10:07:07;;;;;;;56.37;38.60;;;5.40;99.90;;;;;;5068198;28;20552;-62
2022/01/17 10:09:39;;;;;;;56.73;38.30;;;5.30;99.90;;;;;;5077405;28;20461;-62
2022/01/17 10:12:11;;;;;;;59.10;38.97;;;5.40;99.90;;;;;;5076883;28;20479;-62
2022/01/17 10:14:45;;;;;;;63.30;40.67;;;5.40;99.90;;;;;;5073570;28;20770;-62
2022/01/17 10:17:15;;;;;;;62.20;40.97;;;5.40;99.90;;;;;;5071989;28;20507;-63
2022/01/17 10:19:45;;;;;;;58.57;40.13;;;5.40;99.90;;;;;;5070963;28;20462;-62
2022/01/17 10:22:27;;;;;;;58.53;41.60;;;5.40;99.90;;;;;;5076859;28;20866;-61
2022/01/17 10:25:18;;;;;;;53.17;35.97;;;5.30;99.90;;;;;;5075839;28;20542;-61
2022/01/17 10:28:14;;;;;;;46.87;34.43;;;5.30;99.90;;;;;;5069869;28;20937;-61
2022/01/17 10:31:04;;;;;;;59.90;36.87;;;5.30;99.90;;;;;;5077579;28;20465;-61
2022/01/17 10:36:22;;;;;;;48.50;33.47;;;5.30;99.90;;;;;;5067466;28;20815;-62
2022/01/17 10:39:08;;;;;;;50.57;34.50;;;5.40;99.90;;;;;;5076964;28;20461;-62
2022/01/17 10:41:35;;;;;;;44.83;33.40;;;5.40;99.90;;;;;;5076966;28;20861;-62
2022/01/17 10:44:03;;;;;;;43.40;32.97;;;5.30;99.90;;;;;;5073250;28;20469;-62
2022/01/17 10:46:33;;;;;;;46.40;32.20;;;5.40;99.90;;;;;;5070871;28;20467;-62
2022/01/17 10:49:00;;;;;;;40.40;30.20;;;5.40;99.90;;;;;;5073575;28;20914;-61
2022/01/17 10:51:32;;;;;;;44.50;31.60;;;5.40;99.90;;;;;;5065187;28;20550;-61
2022/01/17 10:54:12;;;;;;;46.27;28.13;;;5.40;99.90;;;;;;5076622;28;20493;-61
2022/01/17 10:56:52;;;;;;;45.03;31.00;;;5.40;99.90;;;;;;5067472;28;20557;-62
2022/01/17 10:59:27;;;;;;;41.83;29.93;;;5.40;99.90;;;;;;5056623;28;20444;-62
2022/01/17 11:01:55;;;;;;;45.30;30.60;;;5.50;99.90;;;;;;5057279;28;20460;-61
2022/01/17 11:04:39;;;;;;;37.53;29.20;;;5.40;99.90;;;;;;5058572;28;20452;-61
2022/01/17 11:07:10;;;;;;;40.63;29.13;;;5.40;99.90;;;;;;5069656;28;20465;-62
2022/01/17 11:09:49;;;;;;;40.70;29.90;;;5.50;99.90;;;;;;5076901;28;20585;-62
2022/01/17 11:12:18;;;;;;;43.43;30.70;;;5.50;99.90;;;;;;5076123;28;20475;-62
2022/01/17 11:14:48;;;;;;;44.63;28.80;;;5.50;99.90;;;;;;5076722;28;20473;-62
2022/01/17 11:17:25;;;;;;;38.50;28.60;;;5.50;99.90;;;;;;5087534;28;20862;-62
2022/01/17 11:20:05;;;;;;;43.67;29.70;;;5.50;99.90;;;;;;5076816;28;20465;-62
2022/01/17 11:22:33;;;;;;;39.50;27.43;;;5.50;99.90;;;;;;5076590;28;20547;-62
2022/01/17 11:25:05;;;;;;;40.60;28.27;;;5.40;99.90;;;;;;5076619;28;20523;-62
2022/01/17 11:27:33;;;;;;;39.53;28.87;;;5.50;99.90;;;;;;5076974;28;20508;-62
2022/01/17 11:30:05;;;;;;;45.47;28.87;;;5.50;99.90;;;;;;5077193;28;20435;-62
2022/01/17 11:32:32;;;;;;;36.23;27.70;;;5.50;99.90;;;;;;5076105;28;20782;-62
2022/01/17 11:35:05;;;;;;;31.70;26.70;;;5.40;99.90;;;;;;5075356;28;20440;-62
2022/01/17 11:37:36;;;;;;;35.40;26.50;;;5.50;99.90;;;;;;5084229;28;20500;-62
2022/01/17 11:40:11;;;;;;;38.23;27.20;;;5.50;99.90;;;;;;5096706;28;20434;-62
2022/01/17 11:42:44;;;;;;;36.70;27.10;;;5.60;99.90;;;;;;5101376;28;20427;-62
2022/01/17 11:45:37;;;;;;;34.40;26.67;;;5.50;99.90;;;;;;5085565;28;20461;-62
2022/01/17 11:48:07;;;;;;;37.63;25.67;;;5.60;99.90;;;;;;5080201;28;20459;-62
2022/01/17 11:50:40;;;;;;;38.87;26.73;;;5.60;99.90;;;;;;5075694;28;20464;-62
2022/01/17 11:53:53;;;;;;;40.47;26.30;;;5.60;99.90;;;;;;5076899;28;20488;-62
2022/01/17 11:56:43;;;;;;;39.43;26.40;;;5.60;99.90;;;;;;5079944;28;20468;-60
2022/01/17 11:59:34;;;;;;;42.90;28.67;;;5.50;99.90;;;;;;5078805;28;20460;-61
2022/01/17 12:02:19;;;;;;;41.40;30.07;;;5.70;99.90;;;;;;5079765;28;20538;-61
2022/01/17 12:05:24;;;;;;;43.60;29.87;;;5.70;99.90;;;;;;5078131;28;20464;-61
2022/01/17 12:07:52;;;;;;;42.37;29.00;;;5.80;99.90;;;;;;5079911;28;20441;-62
2022/01/17 12:10:22;;;;;;;43.53;30.23;;;5.80;99.90;;;;;;5078738;28;20755;-62
2022/01/17 12:13:23;;;;;;;39.73;30.30;;;5.80;99.90;;;;;;5079365;28;20496;-62
2022/01/17 12:16:07;;;;;;;38.67;30.20;;;5.80;99.90;;;;;;5066572;28;20471;-62
2022/01/17 12:18:36;;;;;;;42.00;28.50;;;5.80;99.90;;;;;;5079216;28;20538;-62
2022/01/17 12:21:30;;;;;;;36.60;28.47;;;5.90;99.90;;;;;;5094238;28;20893;-62
2022/01/17 12:24:32;;;;;;;52.40;31.23;;;5.80;99.90;;;;;;5079785;28;20436;-61
2022/01/17 12:27:15;;;;;;;35.20;25.80;;;5.80;99.90;;;;;;5079265;28;20912;-62
2022/01/17 12:29:46;;;;;;;32.23;25.80;;;5.70;99.90;;;;;;5071962;28;20838;-61
2022/01/17 12:32:47;;;;;;;34.77;25.60;;;5.70;99.90;;;;;;5054495;28;20974;-62
2022/01/17 12:35:17;;;;;;;44.33;26.00;;;5.80;99.90;;;;;;5059236;28;20466;-61
2022/01/17 12:37:49;;;;;;;33.47;25.87;;;5.70;99.90;;;;;;5071223;28;20552;-61
2022/01/17 12:40:21;;;;;;;33.63;24.80;;;5.70;99.90;;;;;;5051859;28;20441;-61
2022/01/17 12:42:57;;;;;;;31.77;24.70;;;5.70;99.90;;;;;;5054018;28;20711;-62
2022/01/17 12:45:28;;;;;;;29.83;24.07;;;5.80;99.90;;;;;;5052317;28;20899;-61
2022/01/17 12:48:01;;;;;;;40.53;25.40;;;5.80;99.90;;;;;;5066676;28;20436;-62
2022/01/17 12:50:38;;;;;;;35.33;24.27;;;5.80;99.90;;;;;;5078191;28;20436;-62
2022/01/17 12:53:07;;;;;;;34.43;25.00;;;5.80;99.90;;;;;;5046025;28;20927;-61
2022/01/17 12:55:40;;;;;;;34.27;23.57;;;5.80;99.90;;;;;;5047539;28;20524;-62
2022/01/17 12:58:16;;;;;;;32.90;23.40;;;5.70;99.90;;;;;;5065687;28;20458;-62
2022/01/17 13:00:52;;;;;;;37.77;25.17;;;5.70;99.90;;;;;;5061615;28;20461;-62
2022/01/17 13:03:24;;;;;;;38.27;26.77;;;5.70;99.90;;;;;;5076488;28;20773;-62
2022/01/17 13:05:56;;;;;;;35.43;26.60;;;5.80;99.90;;;;;;5058680;28;20462;-62
2022/01/17 13:08:24;;;;;;;35.03;25.00;;;5.70;99.90;;;;;;5059256;28;20484;-62
2022/01/17 13:10:52;;;;;;;32.00;24.27;;;5.80;99.90;;;;;;5058148;28;20458;-61
2022/01/17 13:13:20;;;;;;;31.87;25.77;;;5.90;99.90;;;;;;5057752;28;20493;-61